Time;durP1;ratioP1;P1;durP2;ratioP2;P2;SDS_P1;SDS_P2;PMS_P1;PMS_P2;Temp;Humidity;BMP_temperature;BMP_pressure;BME280_temperature;BME280_humidity;BME280_pressure;Samples;Min_cycle;Max_cycle;Signal;HPM_P1;HPM_P2
2022/09/15 00:00:45;;;;;;;1.05;0.70;;;23.10;47.10;;;;;;5049422;28;20109;-10
2022/09/15 00:03:11;;;;;;;0.93;0.80;;;23.10;47.00;;;;;;5049132;28;20084;-10
2022/09/15 00:05:37;;;;;;;1.67;0.90;;;23.20;47.10;;;;;;5048738;28;20084;-10
2022/09/15 00:08:03;;;;;;;0.70;0.70;;;23.10;47.00;;;;;;5049751;28;20057;-11
2022/09/15 00:10:29;;;;;;;0.80;0.70;;;23.10;47.10;;;;;;5051872;28;20052;-10
2022/09/15 00:12:55;;;;;;;0.80;0.70;;;23.10;47.00;;;;;;5051799;28;20080;-10
2022/09/15 00:15:22;;;;;;;1.23;0.90;;;23.20;47.10;;;;;;5052357;28;20060;-10
2022/09/15 00:17:50;;;;;;;0.75;0.65;;;23.10;47.00;;;;;;5051703;28;20065;-10
2022/09/15 00:20:20;;;;;;;0.82;0.63;;;23.10;47.00;;;;;;5051615;28;20136;-10
2022/09/15 00:22:46;;;;;;;0.77;0.60;;;23.10;47.00;;;;;;5051576;28;20512;-11
2022/09/15 00:25:13;;;;;;;0.85;0.70;;;23.10;47.10;;;;;;5051790;28;20127;-10
2022/09/15 00:27:39;;;;;;;1.05;0.80;;;23.20;47.10;;;;;;5051343;28;20078;-10
2022/09/15 00:30:06;;;;;;;0.73;0.70;;;23.10;47.00;;;;;;5051662;28;20045;-10
2022/09/15 00:32:32;;;;;;;0.70;0.70;;;23.10;47.00;;;;;;5051127;28;20494;-10
2022/09/15 00:34:57;;;;;;;1.17;0.90;;;23.10;47.10;;;;;;5051408;28;20069;-11
2022/09/15 00:37:23;;;;;;;1.25;0.85;;;23.10;47.10;;;;;;5051322;28;20045;-10
2022/09/15 00:39:49;;;;;;;1.02;0.90;;;23.10;47.10;;;;;;5051441;28;20509;-10
2022/09/15 00:42:20;;;;;;;0.82;0.77;;;23.10;47.10;;;;;;5051654;28;20081;-10
2022/09/15 00:44:47;;;;;;;0.73;0.73;;;23.10;47.10;;;;;;5052019;28;20057;-10
2022/09/15 00:47:13;;;;;;;1.58;0.88;;;23.10;47.00;;;;;;5050047;28;20501;-10
2022/09/15 00:49:40;;;;;;;2.22;0.90;;;23.10;47.00;;;;;;5051352;28;20067;-10
2022/09/15 00:52:07;;;;;;;1.45;0.70;;;23.10;47.00;;;;;;5051290;28;20049;-10
2022/09/15 00:54:50;;;;;;;0.77;0.70;;;23.20;47.00;;;;;;5051315;28;20057;-10
2022/09/15 00:57:21;;;;;;;0.75;0.63;;;23.20;47.00;;;;;;5051454;28;20060;-11
2022/09/15 00:59:49;;;;;;;1.27;0.80;;;23.10;47.00;;;;;;5051460;28;20371;-11
2022/09/15 01:02:20;;;;;;;0.95;0.85;;;23.10;47.00;;;;;;5051105;28;20041;-10
2022/09/15 01:04:46;;;;;;;0.77;0.70;;;23.10;47.00;;;;;;5051399;28;20135;-10
2022/09/15 01:07:15;;;;;;;0.75;0.75;;;23.10;47.10;;;;;;5051654;28;20057;-11
2022/09/15 01:09:51;;;;;;;0.93;0.90;;;23.10;47.10;;;;;;5051247;28;20087;-10
2022/09/15 01:12:17;;;;;;;0.90;0.82;;;23.10;47.10;;;;;;5051277;28;20070;-10
2022/09/15 01:14:43;;;;;;;1.73;0.90;;;23.10;47.10;;;;;;5050980;28;20140;-10
2022/09/15 01:17:22;;;;;;;0.77;0.70;;;23.10;47.10;;;;;;5051512;28;20140;-11
2022/09/15 01:19:59;;;;;;;1.30;0.93;;;23.10;47.10;;;;;;5053413;28;20049;-10
2022/09/15 01:22:37;;;;;;;0.88;0.60;;;23.10;47.10;;;;;;5050841;28;20473;-10
2022/09/15 01:25:30;;;;;;;0.90;0.75;;;23.10;47.10;;;;;;5051194;28;20105;-10
2022/09/15 01:28:34;;;;;;;1.05;0.77;;;23.10;47.10;;;;;;5051283;28;20045;-10
2022/09/15 01:31:02;;;;;;;0.70;0.70;;;23.10;47.10;;;;;;5058243;28;20052;-10
2022/09/15 01:33:41;;;;;;;0.82;0.75;;;23.10;47.00;;;;;;5051407;28;20052;-10
2022/09/15 01:36:18;;;;;;;1.20;1.00;;;23.10;47.00;;;;;;5051123;28;21007;-10
2022/09/15 01:38:50;;;;;;;0.88;0.70;;;23.10;47.00;;;;;;5051369;28;20060;-11
2022/09/15 01:41:25;;;;;;;0.60;0.60;;;23.10;47.00;;;;;;5050785;28;20060;-10
2022/09/15 01:43:53;;;;;;;0.73;0.68;;;23.10;47.10;;;;;;5050960;28;20063;-10
2022/09/15 01:46:22;;;;;;;0.73;0.57;;;23.10;47.00;;;;;;5050738;28;20387;-11
2022/09/15 01:48:51;;;;;;;1.10;0.85;;;23.10;47.00;;;;;;5050521;28;20057;-11
2022/09/15 01:51:17;;;;;;;0.70;0.70;;;23.10;47.10;;;;;;5050585;28;20052;-10
2022/09/15 01:53:44;;;;;;;0.80;0.77;;;23.10;47.10;;;;;;5051167;28;20048;-10
2022/09/15 01:56:11;;;;;;;0.70;0.63;;;23.10;47.10;;;;;;5050349;28;20057;-11
2022/09/15 01:58:38;;;;;;;1.13;0.90;;;23.10;47.00;;;;;;5050579;28;20052;-11
2022/09/15 02:01:48;;;;;;;0.90;0.70;;;23.10;47.10;;;;;;5050780;28;20053;-11
2022/09/15 02:04:38;;;;;;;1.35;0.80;;;23.10;47.10;;;;;;5050388;28;20084;-11
2022/09/15 02:07:19;;;;;;;1.10;0.85;;;23.10;47.10;;;;;;5050370;28;20053;-10
2022/09/15 02:10:10;;;;;;;1.00;0.90;;;23.10;47.10;;;;;;5050354;28;20053;-10
2022/09/15 02:13:10;;;;;;;0.95;0.55;;;23.10;47.20;;;;;;5050184;28;20051;-10
2022/09/15 02:15:57;;;;;;;1.00;0.77;;;23.10;47.20;;;;;;5050450;28;20113;-11
2022/09/15 02:18:44;;;;;;;0.80;0.80;;;23.10;47.10;;;;;;5050268;28;20049;-10
2022/09/15 02:21:21;;;;;;;1.50;0.95;;;23.10;47.10;;;;;;5050140;28;20057;-10
2022/09/15 02:23:53;;;;;;;0.80;0.80;;;23.10;47.10;;;;;;5050399;28;20052;-10
2022/09/15 02:26:24;;;;;;;1.00;0.70;;;23.10;47.20;;;;;;5050327;28;20490;-10
2022/09/15 02:28:52;;;;;;;0.80;0.80;;;23.00;47.20;;;;;;5050126;28;20057;-10
2022/09/15 02:31:21;;;;;;;1.05;0.75;;;23.00;47.10;;;;;;5050028;28;20302;-10
2022/09/15 02:33:57;;;;;;;1.00;0.90;;;23.00;47.10;;;;;;5050136;28;20157;-10
2022/09/15 02:36:26;;;;;;;0.88;0.70;;;23.10;47.10;;;;;;5050127;28;20045;-11
2022/09/15 02:38:58;;;;;;;1.55;0.90;;;23.00;47.10;;;;;;5049895;28;20113;-11
2022/09/15 02:41:23;;;;;;;0.88;0.77;;;23.00;47.10;;;;;;5050347;28;20057;-10
2022/09/15 02:43:50;;;;;;;1.05;0.95;;;23.00;47.10;;;;;;5050269;28;20446;-10
2022/09/15 02:46:18;;;;;;;0.98;0.75;;;23.00;47.10;;;;;;5050061;28;20068;-10
2022/09/15 02:48:44;;;;;;;0.93;0.85;;;23.00;47.20;;;;;;5050037;28;20473;-11
2022/09/15 02:51:10;;;;;;;1.35;0.95;;;23.00;47.10;;;;;;5049909;28;20094;-10
2022/09/15 02:53:36;;;;;;;0.82;0.80;;;23.00;47.10;;;;;;5050345;28;20135;-10
2022/09/15 02:56:04;;;;;;;0.60;0.60;;;23.00;47.10;;;;;;5049867;28;20057;-11
2022/09/15 02:58:31;;;;;;;1.55;0.80;;;23.10;47.10;;;;;;5049500;28;20486;-11
2022/09/15 03:00:56;;;;;;;0.75;0.65;;;23.00;47.10;;;;;;5049686;28;20486;-10
2022/09/15 03:03:22;;;;;;;1.00;0.90;;;23.10;47.10;;;;;;5049700;28;20074;-10
2022/09/15 03:05:48;;;;;;;0.88;0.88;;;23.00;47.10;;;;;;5050144;28;20402;-11
2022/09/15 03:08:13;;;;;;;1.00;0.75;;;23.00;47.10;;;;;;5049488;28;20052;-10
2022/09/15 03:10:39;;;;;;;1.08;0.93;;;23.00;47.10;;;;;;5049639;28;20053;-10
2022/09/15 03:13:04;;;;;;;0.85;0.80;;;23.00;47.20;;;;;;5049527;28;20057;-10
2022/09/15 03:15:30;;;;;;;1.25;1.00;;;23.00;47.10;;;;;;5050068;28;20061;-10
2022/09/15 03:18:00;;;;;;;1.15;0.82;;;23.00;47.10;;;;;;5049422;28;20490;-10
2022/09/15 03:20:27;;;;;;;1.02;0.90;;;23.00;47.10;;;;;;5049292;28;20045;-10
2022/09/15 03:22:54;;;;;;;0.98;0.70;;;23.00;47.10;;;;;;5049173;28;20432;-10
2022/09/15 03:25:25;;;;;;;0.82;0.73;;;23.00;47.20;;;;;;5049397;28;20567;-10
2022/09/15 03:27:52;;;;;;;;;;;23.00;47.10;;;;;;5050124;28;20397;-10
2022/09/15 03:30:17;;;;;;;0.60;0.60;;;23.00;47.20;;;;;;5049241;28;19959;-11
2022/09/15 03:32:43;;;;;;;1.17;0.70;;;23.10;47.10;;;;;;5046238;28;20111;-10
2022/09/15 03:35:09;;;;;;;0.95;0.80;;;23.00;47.10;;;;;;5049071;28;20060;-10
2022/09/15 03:37:34;;;;;;;0.77;0.70;;;23.10;47.10;;;;;;5046705;28;20066;-10
2022/09/15 03:40:00;;;;;;;0.93;0.80;;;23.00;47.20;;;;;;5048977;28;20060;-10
2022/09/15 03:42:26;;;;;;;1.48;1.00;;;23.00;47.20;;;;;;5049132;28;20383;-10
2022/09/15 03:44:51;;;;;;;1.08;0.93;;;23.00;47.20;;;;;;5052483;28;20418;-10
2022/09/15 03:47:17;;;;;;;1.45;0.90;;;23.00;47.20;;;;;;5052203;28;20057;-10
2022/09/15 03:49:42;;;;;;;1.10;0.80;;;23.00;47.20;;;;;;5052160;28;20105;-11
2022/09/15 03:52:08;;;;;;;0.85;0.80;;;23.00;47.70;;;;;;5052111;28;20509;-10
2022/09/15 03:54:34;;;;;;;1.02;0.80;;;23.00;47.20;;;;;;5052486;28;20521;-10
2022/09/15 03:57:00;;;;;;;0.90;0.80;;;23.00;47.10;;;;;;5051937;28;20057;-10
2022/09/15 03:59:25;;;;;;;1.08;0.80;;;23.00;47.20;;;;;;5051899;28;20053;-11
2022/09/15 04:01:51;;;;;;;0.82;0.82;;;23.00;47.20;;;;;;5051969;28;20053;-10
2022/09/15 04:04:16;;;;;;;0.70;0.70;;;23.00;47.20;;;;;;5052155;28;20044;-10
2022/09/15 04:06:43;;;;;;;1.00;0.68;;;23.00;47.20;;;;;;5052545;28;20052;-10
2022/09/15 04:09:09;;;;;;;1.10;1.00;;;23.00;47.20;;;;;;5052065;28;20102;-10
2022/09/15 04:11:37;;;;;;;1.15;0.82;;;23.00;47.20;;;;;;5052166;28;20053;-10
2022/09/15 04:14:02;;;;;;;0.85;0.80;;;23.00;47.20;;;;;;5052277;28;20056;-11
2022/09/15 04:16:28;;;;;;;1.17;0.98;;;23.00;47.20;;;;;;5051825;28;20410;-10
2022/09/15 04:18:55;;;;;;;1.05;0.95;;;23.00;47.10;;;;;;5051576;28;20064;-10
2022/09/15 04:21:23;;;;;;;1.17;0.85;;;23.00;47.20;;;;;;5051963;28;20057;-10
2022/09/15 04:23:49;;;;;;;1.17;0.77;;;23.00;47.30;;;;;;5051910;28;20512;-10
2022/09/15 04:26:28;;;;;;;0.70;0.70;;;23.00;47.20;;;;;;5051726;28;20049;-10
2022/09/15 04:28:54;;;;;;;0.70;0.70;;;23.00;47.20;;;;;;5051781;28;20109;-11
2022/09/15 04:31:20;;;;;;;1.27;1.00;;;23.00;47.20;;;;;;5051872;28;20060;-10
2022/09/15 04:33:46;;;;;;;1.20;0.70;;;23.00;47.20;;;;;;5052200;28;20053;-10
2022/09/15 04:36:17;;;;;;;0.80;0.80;;;23.00;47.20;;;;;;5051578;28;20061;-10
2022/09/15 04:38:43;;;;;;;0.77;0.70;;;23.00;47.30;;;;;;5051685;28;20109;-11
2022/09/15 04:41:09;;;;;;;2.17;1.08;;;22.90;47.20;;;;;;5051511;28;20049;-10
2022/09/15 04:43:35;;;;;;;0.73;0.73;;;23.00;47.80;;;;;;5051639;28;20084;-10
2022/09/15 04:46:01;;;;;;;0.70;0.70;;;23.00;47.30;;;;;;5051210;28;20109;-10
2022/09/15 04:48:26;;;;;;;1.05;0.70;;;23.00;47.30;;;;;;5051966;28;20045;-10
2022/09/15 04:50:52;;;;;;;1.40;0.90;;;22.90;47.20;;;;;;5051264;28;20418;-11
2022/09/15 04:53:18;;;;;;;0.80;0.80;;;22.90;47.20;;;;;;5051415;28;20969;-10
2022/09/15 04:55:44;;;;;;;0.98;0.90;;;23.00;47.30;;;;;;5049965;28;20051;-11
2022/09/15 04:58:10;;;;;;;1.38;0.98;;;22.90;47.20;;;;;;5051613;28;20464;-11
2022/09/15 05:00:43;;;;;;;1.15;0.82;;;22.90;47.20;;;;;;5051085;28;20049;-10
2022/09/15 05:03:13;;;;;;;1.30;1.05;;;22.90;47.30;;;;;;5051423;28;20049;-10
2022/09/15 05:05:39;;;;;;;0.95;0.80;;;22.90;47.30;;;;;;5050935;28;20053;-11
2022/09/15 05:08:06;;;;;;;0.80;0.80;;;22.90;47.30;;;;;;5051282;28;20099;-11
2022/09/15 05:10:32;;;;;;;1.05;0.93;;;22.90;47.30;;;;;;5051052;28;20052;-10
2022/09/15 05:12:57;;;;;;;0.63;0.63;;;22.90;47.30;;;;;;5051021;28;20136;-10
2022/09/15 05:15:24;;;;;;;1.13;0.98;;;22.90;47.30;;;;;;5051093;28;20096;-10
2022/09/15 05:17:53;;;;;;;1.20;0.90;;;23.00;47.30;;;;;;5050864;28;20049;-10
2022/09/15 05:20:19;;;;;;;0.85;0.70;;;23.00;47.30;;;;;;5051497;28;20053;-11
2022/09/15 05:22:44;;;;;;;1.48;0.80;;;22.90;47.80;;;;;;5050906;28;20390;-10
2022/09/15 05:25:10;;;;;;;0.70;0.60;;;23.00;47.30;;;;;;5051146;28;20061;-10
2022/09/15 05:27:38;;;;;;;0.77;0.63;;;23.00;47.30;;;;;;5050759;28;20057;-10
2022/09/15 05:30:04;;;;;;;0.93;0.80;;;23.00;47.30;;;;;;5050900;28;20084;-10
2022/09/15 05:32:30;;;;;;;1.23;0.90;;;23.00;47.30;;;;;;5030903;28;20057;-11
2022/09/15 05:34:55;;;;;;;0.80;0.80;;;22.90;47.20;;;;;;5050797;28;20049;-10
2022/09/15 05:37:21;;;;;;;1.02;0.75;;;23.00;47.30;;;;;;5048295;28;20411;-10
2022/09/15 05:39:47;;;;;;;0.80;0.60;;;23.00;47.30;;;;;;5050684;28;20061;-11
2022/09/15 05:42:12;;;;;;;1.63;0.88;;;23.00;47.30;;;;;;5050419;28;20053;-10
2022/09/15 05:44:38;;;;;;;0.85;0.70;;;23.00;47.30;;;;;;5049342;28;20437;-10
2022/09/15 05:47:03;;;;;;;0.73;0.73;;;22.90;47.20;;;;;;5050624;28;20060;-10
2022/09/15 05:49:29;;;;;;;1.08;0.80;;;23.00;47.30;;;;;;5050538;28;20049;-10
2022/09/15 05:51:55;;;;;;;0.82;0.70;;;23.00;47.20;;;;;;5050610;28;20084;-10
2022/09/15 05:54:20;;;;;;;1.08;0.85;;;23.00;47.30;;;;;;5051136;28;20075;-10
2022/09/15 05:56:46;;;;;;;0.80;0.80;;;23.00;47.20;;;;;;5050635;28;20060;-10
2022/09/15 05:59:12;;;;;;;0.73;0.70;;;23.00;47.20;;;;;;5050504;28;20064;-10
2022/09/15 06:01:37;;;;;;;1.33;1.05;;;23.00;47.20;;;;;;5050406;28;20060;-11
2022/09/15 06:04:03;;;;;;;1.73;0.70;;;23.00;47.20;;;;;;5050425;28;20185;-11
2022/09/15 06:06:31;;;;;;;1.58;0.80;;;23.00;47.20;;;;;;5050086;28;20494;-11
2022/09/15 06:08:57;;;;;;;1.00;0.90;;;23.00;47.20;;;;;;5050126;28;20082;-10
2022/09/15 06:11:28;;;;;;;0.70;0.70;;;23.00;47.10;;;;;;5050349;28;20410;-11
2022/09/15 06:13:53;;;;;;;1.10;1.00;;;23.10;47.10;;;;;;5050649;28;20129;-11
2022/09/15 06:16:22;;;;;;;0.85;0.73;;;23.10;47.00;;;;;;5050434;28;20114;-11
2022/09/15 06:18:49;;;;;;;1.85;0.85;;;23.10;47.00;;;;;;5050037;28;20063;-10
2022/09/15 06:21:19;;;;;;;0.80;0.80;;;23.10;47.00;;;;;;5050100;28;20057;-10
2022/09/15 06:23:45;;;;;;;1.33;1.08;;;23.20;47.50;;;;;;5050388;28;20090;-11
2022/09/15 06:26:13;;;;;;;1.10;0.90;;;23.20;46.80;;;;;;5050430;28;20106;-13
2022/09/15 06:28:41;;;;;;;0.90;0.80;;;23.30;46.80;;;;;;5050041;28;20047;-10
2022/09/15 06:31:13;;;;;;;0.93;0.80;;;23.30;46.80;;;;;;5050172;28;20494;-10
2022/09/15 06:33:45;;;;;;;1.15;1.00;;;23.20;46.80;;;;;;5050647;28;20059;-11
2022/09/15 06:36:12;;;;;;;1.25;1.08;;;23.20;46.90;;;;;;5050312;28;20394;-10
2022/09/15 06:38:38;;;;;;;1.30;1.00;;;23.20;46.80;;;;;;5050152;28;20064;-11
2022/09/15 06:41:05;;;;;;;1.02;0.80;;;23.20;46.90;;;;;;5049826;28;20053;-10
2022/09/15 06:43:31;;;;;;;1.00;0.90;;;23.20;46.90;;;;;;5049990;28;20052;-10
2022/09/15 06:46:08;;;;;;;2.05;1.08;;;23.20;46.90;;;;;;5049733;28;20053;-10
2022/09/15 06:48:35;;;;;;;1.08;0.95;;;23.10;47.00;;;;;;5049708;28;20472;-11
2022/09/15 06:51:03;;;;;;;1.98;1.00;;;23.10;47.00;;;;;;5049761;28;20055;-10
2022/09/15 06:53:29;;;;;;;1.48;0.90;;;23.10;47.00;;;;;;5049737;28;20074;-10
2022/09/15 06:55:59;;;;;;;1.73;0.98;;;23.10;47.00;;;;;;5049954;28;20052;-11
2022/09/15 06:58:25;;;;;;;2.20;0.80;;;23.20;47.00;;;;;;5049479;28;20056;-11
2022/09/15 07:00:50;;;;;;;2.53;1.00;;;23.10;47.00;;;;;;5049676;28;20053;-11
2022/09/15 07:03:16;;;;;;;1.27;1.08;;;23.10;47.00;;;;;;5049768;28;20098;-11
2022/09/15 07:05:45;;;;;;;1.10;1.00;;;23.10;47.00;;;;;;5049656;28;20056;-11
2022/09/15 07:08:10;;;;;;;0.95;0.80;;;23.20;47.10;;;;;;5049545;28;20087;-11
2022/09/15 07:10:36;;;;;;;1.38;0.88;;;23.20;47.00;;;;;;5049437;28;20086;-11
2022/09/15 07:13:02;;;;;;;2.05;0.93;;;23.30;46.90;;;;;;5049766;28;20045;-11
2022/09/15 07:15:28;;;;;;;2.65;0.88;;;23.40;46.70;;;;;;5049544;28;20045;-12
2022/09/15 07:17:55;;;;;;;2.42;1.15;;;23.50;46.50;;;;;;5030336;28;20516;-10
2022/09/15 07:20:22;;;;;;;1.35;1.00;;;23.50;46.40;;;;;;5049077;28;20419;-9
2022/09/15 07:22:48;;;;;;;2.10;0.82;;;23.60;46.40;;;;;;5049185;28;20081;-10
2022/09/15 07:25:13;;;;;;;1.30;0.90;;;23.60;46.30;;;;;;5049191;28;20122;-10
2022/09/15 07:27:39;;;;;;;2.55;1.08;;;23.60;46.30;;;;;;5049038;28;20064;-10
2022/09/15 07:30:07;;;;;;;1.67;1.02;;;23.60;46.20;;;;;;5049152;28;20102;-10
2022/09/15 07:32:33;;;;;;;0.85;0.80;;;23.50;46.30;;;;;;5049346;28;20135;-17
2022/09/15 07:34:58;;;;;;;1.33;0.90;;;23.50;46.50;;;;;;5049094;28;20060;-10
2022/09/15 07:37:24;;;;;;;3.15;1.30;;;23.50;46.60;;;;;;5049448;28;20097;-10
2022/09/15 07:39:50;;;;;;;4.13;1.27;;;23.40;46.50;;;;;;5049058;28;20140;-10
2022/09/15 07:42:15;;;;;;;3.03;1.00;;;23.40;46.60;;;;;;5049082;28;20394;-11
2022/09/15 07:44:41;;;;;;;1.73;0.98;;;23.40;46.70;;;;;;5049210;28;20060;-10
2022/09/15 07:47:07;;;;;;;1.77;0.93;;;23.40;46.70;;;;;;5049289;28;20060;-10
2022/09/15 07:49:32;;;;;;;1.88;1.10;;;23.40;46.70;;;;;;5048649;28;20052;-10
2022/09/15 07:51:59;;;;;;;1.30;1.08;;;23.40;46.70;;;;;;5049501;28;20516;-10
2022/09/15 07:54:25;;;;;;;3.33;1.17;;;23.40;47.30;;;;;;5048867;28;20052;-10
2022/09/15 07:56:50;;;;;;;1.55;1.08;;;23.50;46.60;;;;;;5049255;28;20045;-10
2022/09/15 07:59:16;;;;;;;3.10;1.20;;;23.60;46.40;;;;;;5048373;28;20417;-10
2022/09/15 08:01:41;;;;;;;2.65;1.63;;;23.70;46.30;;;;;;5048313;28;20139;-10
2022/09/15 08:04:07;;;;;;;1.27;1.05;;;23.80;46.10;;;;;;5049092;28;20046;-10
2022/09/15 08:06:32;;;;;;;2.35;1.00;;;23.80;45.80;;;;;;5048892;28;20056;-10
2022/09/15 08:08:58;;;;;;;1.20;1.10;;;23.90;45.80;;;;;;5047609;28;20081;-11
2022/09/15 08:11:24;;;;;;;1.50;1.00;;;23.90;45.70;;;;;;5048605;28;20057;-11
2022/09/15 08:13:51;;;;;;;1.77;1.20;;;23.90;45.60;;;;;;5048467;28;20049;-12
2022/09/15 08:16:20;;;;;;;2.35;1.13;;;23.90;45.60;;;;;;5048465;28;20506;-12
2022/09/15 08:18:47;;;;;;;1.70;1.17;;;24.00;45.60;;;;;;5048795;28;20060;-11
2022/09/15 08:21:15;;;;;;;1.65;1.20;;;24.00;45.60;;;;;;5048229;28;20067;-11
2022/09/15 08:23:41;;;;;;;2.65;1.35;;;23.90;45.60;;;;;;5048412;28;20057;-11
2022/09/15 08:26:08;;;;;;;2.67;1.38;;;23.90;45.70;;;;;;5048925;28;20084;-12
2022/09/15 08:28:34;;;;;;;2.03;1.13;;;23.90;45.80;;;;;;5031117;28;20519;-11
2022/09/15 08:31:02;;;;;;;2.63;1.40;;;23.80;45.80;;;;;;5051348;28;20147;-11
2022/09/15 08:33:28;;;;;;;3.05;1.30;;;23.80;45.90;;;;;;5033923;28;20052;-11
2022/09/15 08:35:59;;;;;;;1.85;1.20;;;23.80;46.00;;;;;;5051459;28;20059;-11
2022/09/15 08:38:27;;;;;;;2.42;1.30;;;23.80;45.90;;;;;;5033682;28;20076;-10
2022/09/15 08:41:05;;;;;;;3.05;1.20;;;23.80;46.00;;;;;;5051417;28;20057;-10
2022/09/15 08:43:59;;;;;;;2.90;1.67;;;23.80;46.00;;;;;;5051229;28;20113;-10
2022/09/15 08:46:50;;;;;;;3.17;1.42;;;23.80;46.10;;;;;;5051279;28;20140;-11
2022/09/15 08:49:23;;;;;;;1.48;1.13;;;23.80;46.10;;;;;;5051007;28;20060;-11
2022/09/15 08:51:51;;;;;;;2.70;1.33;;;23.80;46.10;;;;;;5049870;28;20052;-12
2022/09/15 08:54:23;;;;;;;2.00;1.45;;;23.80;46.20;;;;;;5049260;28;20421;-14
2022/09/15 08:56:49;;;;;;;2.78;1.60;;;23.80;46.10;;;;;;5014616;28;20499;-11
2022/09/15 08:59:17;;;;;;;2.72;1.40;;;23.80;46.10;;;;;;5050211;28;20113;-11
2022/09/15 09:02:01;;;;;;;4.35;1.52;;;23.90;46.10;;;;;;5050248;28;20059;-11
2022/09/15 09:04:47;;;;;;;2.17;1.50;;;23.90;46.00;;;;;;5050592;28;20052;-13
2022/09/15 09:07:49;;;;;;;3.95;1.70;;;23.90;46.20;;;;;;5050940;28;20053;-11
2022/09/15 09:10:25;;;;;;;3.28;2.22;;;23.80;46.70;;;;;;5051097;28;20405;-11
2022/09/15 09:13:24;;;;;;;3.70;1.40;;;23.80;46.40;;;;;;5051236;28;20505;-11
2022/09/15 09:16:02;;;;;;;2.75;1.45;;;23.80;46.50;;;;;;5049617;28;20049;-11
2022/09/15 09:18:46;;;;;;;4.47;2.08;;;23.80;46.50;;;;;;5050980;28;20057;-11
2022/09/15 09:21:12;;;;;;;7.63;1.73;;;23.80;46.50;;;;;;5050802;28;20482;-11
2022/09/15 09:24:13;;;;;;;5.07;1.73;;;23.80;46.50;;;;;;5050699;28;20053;-11
2022/09/15 09:26:39;;;;;;;8.20;1.92;;;23.90;46.40;;;;;;5050991;28;20474;-11
2022/09/15 09:29:12;;;;;;;5.65;1.75;;;23.90;46.40;;;;;;5050509;28;20117;-11
2022/09/15 09:31:40;;;;;;;3.00;1.70;;;23.90;46.40;;;;;;5050784;28;20161;-11
2022/09/15 09:34:14;;;;;;;4.15;1.92;;;23.90;46.40;;;;;;5050705;28;20097;-11
2022/09/15 09:36:40;;;;;;;4.75;1.63;;;23.80;46.50;;;;;;5050503;28;20057;-11
2022/09/15 09:39:12;;;;;;;5.15;1.60;;;23.90;46.60;;;;;;5050550;28;20060;-11
2022/09/15 09:41:40;;;;;;;3.83;1.73;;;23.80;46.60;;;;;;5049981;28;20052;-11
2022/09/15 09:44:11;;;;;;;4.22;1.55;;;23.80;46.70;;;;;;5051031;28;20490;-11
2022/09/15 09:46:37;;;;;;;3.35;1.77;;;23.80;46.70;;;;;;5050999;28;20040;-11
2022/09/15 09:49:22;;;;;;;6.75;2.38;;;23.70;46.80;;;;;;5050443;28;20060;-11
2022/09/15 09:51:57;;;;;;;4.50;1.92;;;23.70;46.90;;;;;;5050511;28;20048;-11
2022/09/15 09:54:27;;;;;;;7.68;1.83;;;23.70;47.00;;;;;;5050998;28;20608;-11
2022/09/15 09:56:55;;;;;;;7.60;1.50;;;23.70;47.00;;;;;;5050476;28;20524;-11
2022/09/15 09:59:30;;;;;;;2.25;1.45;;;23.70;47.10;;;;;;5050191;28;20049;-11
2022/09/15 10:02:11;;;;;;;5.78;2.22;;;23.70;47.10;;;;;;5050134;28;20053;-11
2022/09/15 10:04:39;;;;;;;6.20;2.10;;;23.70;47.10;;;;;;5050288;28;20057;-10
2022/09/15 10:07:05;;;;;;;5.18;1.90;;;23.80;47.00;;;;;;5050439;28;20048;-11
2022/09/15 10:09:31;;;;;;;3.42;1.73;;;23.80;47.00;;;;;;5050205;28;20072;-11
2022/09/15 10:11:59;;;;;;;4.50;2.00;;;23.80;47.10;;;;;;5050397;28;20052;-11
2022/09/15 10:14:27;;;;;;;6.30;2.17;;;23.80;47.20;;;;;;5050453;28;20044;-11
2022/09/15 10:16:59;;;;;;;9.85;1.90;;;23.80;47.30;;;;;;5050191;28;20053;-11
2022/09/15 10:19:29;;;;;;;5.45;2.10;;;23.80;47.30;;;;;;5055428;28;20045;-11
2022/09/15 10:21:56;;;;;;;7.35;1.90;;;23.80;47.30;;;;;;5049896;28;20098;-11
2022/09/15 10:24:25;;;;;;;6.25;1.85;;;23.80;47.20;;;;;;5050231;28;20076;-10
2022/09/15 10:27:04;;;;;;;4.40;1.98;;;23.80;47.30;;;;;;5050774;28;20047;-11
2022/09/15 10:29:37;;;;;;;4.45;1.83;;;23.90;47.20;;;;;;5050145;28;20049;-11
2022/09/15 10:32:15;;;;;;;5.32;1.98;;;23.90;47.20;;;;;;5050292;28;20095;-11
2022/09/15 10:34:42;;;;;;;5.72;1.77;;;23.90;47.10;;;;;;5050567;28;20048;-13
2022/09/15 10:37:42;;;;;;;4.60;1.63;;;23.90;47.20;;;;;;5048053;28;20056;-11
2022/09/15 10:40:40;;;;;;;4.15;1.85;;;23.90;47.10;;;;;;5051547;28;20049;-10
2022/09/15 10:43:23;;;;;;;7.82;1.80;;;23.90;47.00;;;;;;5050047;28;20370;-10
2022/09/15 10:46:15;;;;;;;4.03;1.50;;;23.80;47.00;;;;;;5048474;28;20573;-11
2022/09/15 10:49:09;;;;;;;9.98;2.50;;;23.90;47.00;;;;;;5048823;28;20060;-11
2022/09/15 10:51:49;;;;;;;6.38;2.05;;;23.80;47.00;;;;;;5049065;28;20067;-11
2022/09/15 10:54:21;;;;;;;4.63;2.05;;;23.80;47.00;;;;;;5048510;28;20041;-10
2022/09/15 10:56:51;;;;;;;2.33;1.48;;;23.80;46.90;;;;;;5049128;28;20055;-11
2022/09/15 10:59:30;;;;;;;3.88;1.70;;;23.80;46.90;;;;;;5049324;28;20053;-11
2022/09/15 11:02:18;;;;;;;4.75;1.90;;;23.80;47.00;;;;;;5049953;28;20059;-10
2022/09/15 11:05:03;;;;;;;4.15;2.00;;;23.80;47.00;;;;;;5049755;28;20059;-10
2022/09/15 11:07:52;;;;;;;5.15;1.73;;;23.80;46.90;;;;;;5049530;28;20053;-11
2022/09/15 11:10:25;;;;;;;4.60;1.60;;;23.80;46.90;;;;;;5049576;28;20053;-10
2022/09/15 11:13:02;;;;;;;4.10;1.60;;;23.80;46.80;;;;;;5049888;28;20291;-11
2022/09/15 11:15:28;;;;;;;4.93;1.55;;;23.80;46.70;;;;;;5049786;28;20136;-11
2022/09/15 11:18:20;;;;;;;3.70;2.05;;;23.90;46.60;;;;;;5049698;28;20137;-10
2022/09/15 11:20:48;;;;;;;3.33;1.50;;;23.80;46.70;;;;;;5049482;28;20429;-10
2022/09/15 11:23:32;;;;;;;5.32;1.65;;;23.80;46.70;;;;;;5049280;28;20094;-10
2022/09/15 11:26:15;;;;;;;2.72;1.80;;;23.80;46.70;;;;;;5049521;28;20097;-11
2022/09/15 11:28:51;;;;;;;3.63;1.50;;;23.80;46.60;;;;;;5048997;28;20139;-10
2022/09/15 11:31:22;;;;;;;2.67;1.50;;;23.90;46.50;;;;;;5049151;28;20076;-11
2022/09/15 11:33:55;;;;;;;;;;;23.90;46.40;;;;;;5049991;28;20049;-10
2022/09/15 11:36:43;;;;;;;6.30;1.80;;;23.90;46.50;;;;;;5049084;28;20011;-10
2022/09/15 11:39:18;;;;;;;5.20;1.63;;;23.80;46.60;;;;;;5051828;28;20398;-12
2022/09/15 11:41:55;;;;;;;2.30;1.75;;;23.80;46.70;;;;;;5048905;28;20181;-11
2022/09/15 11:44:42;;;;;;;3.70;1.80;;;23.80;46.70;;;;;;5049303;28;20041;-11
2022/09/15 11:47:47;;;;;;;4.50;1.90;;;23.80;46.80;;;;;;5048857;28;20045;-11
2022/09/15 11:50:22;;;;;;;2.08;1.40;;;23.80;46.80;;;;;;5085343;27;20107;-11
2022/09/15 11:53:17;;;;;;;2.92;1.40;;;23.80;46.80;;;;;;5031616;28;20065;-11
2022/09/15 11:55:54;;;;;;;2.90;1.60;;;23.70;46.80;;;;;;5048501;28;20416;-11
2022/09/15 11:58:35;;;;;;;4.03;1.70;;;23.70;46.70;;;;;;5048103;28;20053;-11
2022/09/15 12:01:09;;;;;;;3.57;1.70;;;23.80;46.70;;;;;;5048919;28;20086;-11
2022/09/15 12:03:49;;;;;;;3.13;1.80;;;23.80;46.60;;;;;;5049042;28;20805;-11
2022/09/15 12:06:17;;;;;;;2.45;1.35;;;23.80;46.60;;;;;;5037053;28;20056;-12
2022/09/15 12:08:55;;;;;;;4.22;2.17;;;23.70;46.60;;;;;;5049341;28;20406;-11
2022/09/15 12:11:25;;;;;;;3.70;1.38;;;23.80;46.70;;;;;;5051556;28;20053;-12
2022/09/15 12:13:52;;;;;;;3.35;1.40;;;23.80;46.70;;;;;;5051873;28;20049;-9
2022/09/15 12:16:19;;;;;;;3.90;1.63;;;23.80;46.60;;;;;;5051845;28;20383;-10
2022/09/15 12:19:30;;;;;;;4.43;1.23;;;23.80;46.60;;;;;;5051623;28;20056;-10
2022/09/15 12:22:08;;;;;;;4.95;1.35;;;23.80;46.50;;;;;;5061763;28;20080;-10
2022/09/15 12:24:44;;;;;;;2.10;1.30;;;23.80;46.50;;;;;;5052017;28;20057;-10
2022/09/15 12:27:15;;;;;;;1.83;1.20;;;23.80;46.60;;;;;;5051760;28;20053;-10
2022/09/15 12:29:56;;;;;;;3.28;1.40;;;23.80;46.50;;;;;;5051734;28;20110;-10
2022/09/15 12:32:27;;;;;;;3.17;1.58;;;23.80;46.60;;;;;;5050215;28;20052;-10
2022/09/15 12:35:04;;;;;;;4.13;1.55;;;23.80;46.50;;;;;;5051424;28;20468;-10
2022/09/15 12:37:46;;;;;;;1.85;1.40;;;23.70;46.50;;;;;;5051638;28;20487;-10
2022/09/15 12:40:38;;;;;;;2.55;1.48;;;23.70;46.60;;;;;;5051176;28;20101;-10
2022/09/15 12:43:10;;;;;;;4.10;1.85;;;23.70;47.10;;;;;;5051798;28;20041;-10
2022/09/15 12:45:37;;;;;;;2.10;1.30;;;23.70;46.60;;;;;;5052007;28;20076;-10
2022/09/15 12:48:14;;;;;;;1.92;1.15;;;23.70;46.60;;;;;;5051018;28;20057;-10
2022/09/15 12:50:41;;;;;;;1.90;1.45;;;23.70;46.60;;;;;;5051405;28;20160;-10
2022/09/15 12:53:24;;;;;;;4.50;1.60;;;23.70;46.60;;;;;;5051520;28;20045;-10
2022/09/15 12:56:02;;;;;;;2.58;1.40;;;23.70;46.50;;;;;;5051429;28;20136;-10
2022/09/15 12:58:39;;;;;;;3.13;1.63;;;23.80;46.30;;;;;;5051162;28;20105;-10
2022/09/15 13:01:17;;;;;;;2.97;1.40;;;23.90;46.10;;;;;;5054438;28;20060;-10
2022/09/15 13:03:44;;;;;;;2.63;1.42;;;23.90;46.10;;;;;;5051542;28;20132;-10
2022/09/15 13:06:09;;;;;;;2.42;1.50;;;24.00;45.90;;;;;;5051022;28;20049;-11
2022/09/15 13:08:37;;;;;;;1.75;1.25;;;24.00;45.90;;;;;;5051099;28;20097;-10